createdAt,value
2022-07-29T00:01:44.568Z,26.59
2022-07-29T00:04:13.792Z,26.64
2022-07-29T00:06:42.387Z,26.32
2022-07-29T00:09:11.211Z,26.46
2022-07-29T00:11:39.933Z,26.55
2022-07-29T00:14:08.241Z,26.78
2022-07-29T00:16:36.401Z,26.86
2022-07-29T00:19:05.460Z,26.85
2022-07-29T00:21:35.971Z,27.05
2022-07-29T00:24:06.192Z,27.01
2022-07-29T00:26:34.670Z,27.02
2022-07-29T00:29:33.073Z,26.96
2022-07-29T00:31:53.513Z,27.02
2022-07-29T00:34:40.415Z,27.06
2022-07-29T00:37:10.016Z,27.20
2022-07-29T00:39:39.306Z,27.20
2022-07-29T00:42:08.949Z,27.22
2022-07-29T00:44:41.903Z,27.27
2022-07-29T00:47:11.928Z,27.19
2022-07-29T00:49:42.327Z,27.11
2022-07-29T00:52:12.337Z,27.11
2022-07-29T00:54:44.523Z,27.03
2022-07-29T00:57:14.290Z,27.20
2022-07-29T00:59:43.773Z,26.97
2022-07-29T01:02:12.287Z,26.96
2022-07-29T01:04:40.939Z,26.83
2022-07-29T01:07:11.330Z,26.96
2022-07-29T01:09:46.160Z,27.10
2022-07-29T01:12:19.435Z,27.11
2022-07-29T01:14:48.683Z,26.85
2022-07-29T01:17:35.643Z,26.85
2022-07-29T01:20:23.871Z,27.04
2022-07-29T01:23:05.976Z,26.89
2022-07-29T01:25:33.958Z,26.83
2022-07-29T01:28:21.134Z,26.82
2022-07-29T01:30:53.118Z,26.87
2022-07-29T01:33:40.950Z,27.18
2022-07-29T01:36:16.586Z,26.95
2022-07-29T01:38:55.741Z,26.65
2022-07-29T01:41:29.525Z,26.89
2022-07-29T01:44:04.904Z,26.95
2022-07-29T01:46:39.446Z,26.88
2022-07-29T01:49:26.556Z,26.72
2022-07-29T01:52:13.353Z,26.65
2022-07-29T01:54:47.189Z,26.48
2022-07-29T01:57:20.468Z,26.64
2022-07-29T01:59:50.008Z,26.57
2022-07-29T02:02:19.539Z,26.59
2022-07-29T02:04:51.855Z,26.55
2022-07-29T02:07:22.442Z,26.69
2022-07-29T02:09:52.266Z,26.73
2022-07-29T02:12:21.733Z,26.52
2022-07-29T02:14:53.017Z,26.57
2022-07-29T02:17:29.631Z,26.74
2022-07-29T02:20:01.349Z,26.84
2022-07-29T02:22:31.606Z,26.81
2022-07-29T02:25:00.080Z,26.57
2022-07-29T02:27:30.160Z,26.31
2022-07-29T02:29:59.116Z,26.48
2022-07-29T02:32:28.913Z,26.22
2022-07-29T02:35:02.808Z,26.43
2022-07-29T02:37:32.590Z,26.15
2022-07-29T02:40:01.070Z,26.13
2022-07-29T02:42:30.021Z,26.27
2022-07-29T02:44:58.096Z,26.24
2022-07-29T02:47:41.365Z,26.50
2022-07-29T02:50:14.593Z,26.29
2022-07-29T02:52:45.949Z,26.53
2022-07-29T02:55:23.537Z,26.43
2022-07-29T02:58:08.418Z,26.37
2022-07-29T03:00:39.025Z,26.22
2022-07-29T03:03:10.585Z,26.36
2022-07-29T03:05:39.869Z,26.11
2022-07-29T03:08:10.451Z,26.10
2022-07-29T03:10:44.536Z,25.96
2022-07-29T03:13:14.243Z,26.20
2022-07-29T03:15:47.054Z,26.08
2022-07-29T03:18:16.044Z,25.95
2022-07-29T03:20:44.976Z,26.08
2022-07-29T03:23:13.061Z,26.19
2022-07-29T03:25:41.090Z,26.14
2022-07-29T03:28:10.848Z,26.12
2022-07-29T03:30:39.129Z,26.13
2022-07-29T03:33:13.584Z,25.93
2022-07-29T03:35:44.239Z,25.97
2022-07-29T03:38:12.811Z,26.03
2022-07-29T03:40:50.177Z,25.71
2022-07-29T03:43:19.655Z,25.92
2022-07-29T03:45:50.410Z,25.89
2022-07-29T03:48:19.256Z,25.55
2022-07-29T03:50:48.097Z,25.90
2022-07-29T03:53:17.022Z,26.10
2022-07-29T03:55:48.594Z,26.17
2022-07-29T03:58:17.523Z,26.13
2022-07-29T04:00:46.271Z,26.10
2022-07-29T04:03:15.806Z,26.03
2022-07-29T04:05:44.053Z,26.17
2022-07-29T04:08:12.164Z,26.17
2022-07-29T04:10:42.556Z,25.81
2022-07-29T04:13:10.787Z,25.83
2022-07-29T04:15:39.047Z,25.88
2022-07-29T04:18:09.293Z,26.03
2022-07-29T04:20:36.921Z,25.82
2022-07-29T04:23:05.535Z,25.94
2022-07-29T04:25:34.350Z,25.92
2022-07-29T04:28:02.484Z,26.04
2022-07-29T04:30:31.668Z,26.19
2022-07-29T04:33:02.033Z,25.90
2022-07-29T04:35:38.057Z,26.03
2022-07-29T04:38:15.885Z,25.85
2022-07-29T04:40:45.463Z,26.16
2022-07-29T04:43:22.472Z,26.20
2022-07-29T04:45:51.490Z,26.15
2022-07-29T04:48:25.300Z,26.14
2022-07-29T04:50:57.676Z,26.24
2022-07-29T04:53:27.975Z,26.29
2022-07-29T04:55:56.693Z,26.54
2022-07-29T04:58:25.025Z,26.27
2022-07-29T05:00:55.096Z,26.32
2022-07-29T05:03:23.340Z,26.51
2022-07-29T05:05:52.472Z,26.49
2022-07-29T05:08:21.977Z,26.65
2022-07-29T05:10:50.237Z,26.55
2022-07-29T05:13:18.414Z,26.47
2022-07-29T05:15:47.351Z,26.72
2022-07-29T05:18:15.553Z,26.98
2022-07-29T05:20:43.511Z,27.16
2022-07-29T05:23:13.929Z,27.04
2022-07-29T05:25:44.081Z,27.32
2022-07-29T05:28:13.792Z,26.94
2022-07-29T05:30:42.513Z,27.09
2022-07-29T05:33:34.712Z,27.21
2022-07-29T05:36:01.078Z,27.43
2022-07-29T05:38:30.272Z,27.29
2022-07-29T05:41:01.681Z,27.48
2022-07-29T05:43:30.161Z,27.58
2022-07-29T05:45:59.373Z,27.81
2022-07-29T05:48:27.085Z,27.97
2022-07-29T05:50:55.759Z,27.84
2022-07-29T05:53:24.360Z,27.96
2022-07-29T05:55:53.225Z,27.90
2022-07-29T05:58:21.523Z,28.06
2022-07-29T06:00:50.143Z,28.10
2022-07-29T06:03:18.981Z,28.35
2022-07-29T06:05:47.173Z,28.51
2022-07-29T06:08:15.393Z,28.51
2022-07-29T06:10:44.957Z,28.64
2022-07-29T06:13:14.085Z,28.72
2022-07-29T06:15:44.481Z,28.59
2022-07-29T06:18:14.448Z,28.78
2022-07-29T06:20:42.480Z,28.85
2022-07-29T06:23:11.242Z,28.77
2022-07-29T06:25:41.512Z,28.85
2022-07-29T06:28:09.167Z,28.92
2022-07-29T06:30:38.579Z,29.16
2022-07-29T06:33:09.480Z,29.14
2022-07-29T06:35:41.863Z,29.34
2022-07-29T06:38:31.714Z,29.14
2022-07-29T06:41:01.918Z,29.06
2022-07-29T06:43:35.198Z,29.20
2022-07-29T06:46:05.068Z,29.20
2022-07-29T06:48:34.329Z,29.44
2022-07-29T06:51:02.847Z,29.39
2022-07-29T06:53:32.100Z,29.68
2022-07-29T06:56:02.228Z,29.62
2022-07-29T06:58:30.428Z,29.75
2022-07-29T07:00:59.743Z,29.77
2022-07-29T07:03:29.070Z,29.69
2022-07-29T07:05:59.561Z,29.74
2022-07-29T07:08:28.576Z,29.75
2022-07-29T07:10:58.266Z,29.93
2022-07-29T07:13:26.989Z,30.17
2022-07-29T07:15:56.819Z,30.20
2022-07-29T07:18:25.865Z,30.36
2022-07-29T07:20:53.917Z,30.12
2022-07-29T07:23:22.515Z,30.08
2022-07-29T07:26:06.999Z,30.15
2022-07-29T07:28:36.321Z,30.47
2022-07-29T07:31:04.776Z,30.60
2022-07-29T07:33:33.203Z,30.37
2022-07-29T07:36:06.003Z,30.45
2022-07-29T07:38:34.468Z,30.38
2022-07-29T07:41:04.357Z,30.87
2022-07-29T07:43:32.685Z,30.84
2022-07-29T07:46:01.356Z,30.98
2022-07-29T07:48:30.488Z,30.93
2022-07-29T07:50:58.313Z,31.39
2022-07-29T07:53:27.519Z,31.44
2022-07-29T07:56:12.667Z,31.39
2022-07-29T07:58:41.303Z,31.47
2022-07-29T08:01:10.869Z,31.74
2022-07-29T08:03:40.026Z,31.90
2022-07-29T08:06:08.271Z,31.93
2022-07-29T08:08:36.024Z,31.73
2022-07-29T08:11:09.355Z,31.94
2022-07-29T08:13:39.321Z,32.01
2022-07-29T08:16:16.277Z,32.30
2022-07-29T08:18:47.302Z,32.25
2022-07-29T08:21:16.271Z,32.32
2022-07-29T08:23:51.686Z,32.57
2022-07-29T08:26:26.377Z,32.71
2022-07-29T08:28:55.286Z,32.71
2022-07-29T08:31:23.419Z,32.81
2022-07-29T08:33:52.807Z,32.54
2022-07-29T08:36:22.150Z,32.80
2022-07-29T08:38:52.021Z,32.98
2022-07-29T08:41:21.178Z,32.68
2022-07-29T08:43:50.191Z,32.91
2022-07-29T08:46:18.781Z,33.17
2022-07-29T08:48:47.437Z,33.25
2022-07-29T08:51:18.103Z,33.24
2022-07-29T08:53:49.239Z,33.66
2022-07-29T08:56:20.364Z,34.01
2022-07-29T08:58:50.728Z,34.07
2022-07-29T09:01:36.136Z,34.08
2022-07-29T09:04:13.124Z,34.12
2022-07-29T09:06:45.134Z,34.49
2022-07-29T09:09:14.836Z,34.56
2022-07-29T09:11:43.800Z,34.61
2022-07-29T09:14:14.769Z,35.02
2022-07-29T09:16:55.909Z,34.78
2022-07-29T09:19:24.270Z,35.14
2022-07-29T09:21:59.372Z,35.08
2022-07-29T09:24:40.817Z,35.38
2022-07-29T09:27:20.075Z,35.18
2022-07-29T09:29:56.333Z,35.23
2022-07-29T09:32:25.682Z,35.39
2022-07-29T09:35:17.522Z,35.61
2022-07-29T09:37:46.375Z,35.64
2022-07-29T09:40:25.170Z,35.82
2022-07-29T09:42:56.674Z,35.88
2022-07-29T09:45:33.959Z,36.01
2022-07-29T09:48:35.872Z,35.80
2022-07-29T09:51:03.719Z,36.08
2022-07-29T09:53:38.125Z,36.20
2022-07-29T09:56:06.390Z,36.06
2022-07-29T09:58:35.695Z,36.13
2022-07-29T10:01:04.539Z,36.16
2022-07-29T10:03:32.501Z,36.17
2022-07-29T10:06:09.990Z,35.87
2022-07-29T10:08:38.569Z,36.36
2022-07-29T10:11:17.463Z,36.51
2022-07-29T10:13:48.457Z,36.45
2022-07-29T10:16:17.838Z,36.78
2022-07-29T10:18:47.974Z,36.25
2022-07-29T10:21:35.012Z,36.96
2022-07-29T10:24:06.181Z,36.98
2022-07-29T10:26:34.044Z,36.73
2022-07-29T10:29:02.724Z,37.01
2022-07-29T10:31:59.784Z,37.17
2022-07-29T10:34:35.772Z,36.99
2022-07-29T10:37:15.570Z,36.89
2022-07-29T10:39:58.178Z,36.94
2022-07-29T10:42:34.048Z,36.73
2022-07-29T10:45:05.396Z,37.01
2022-07-29T10:47:35.763Z,36.53
2022-07-29T10:50:07.275Z,36.73
2022-07-29T10:52:53.903Z,36.80
2022-07-29T10:55:43.774Z,36.84
2022-07-29T10:58:14.688Z,36.89
2022-07-29T11:00:42.957Z,37.03
2022-07-29T11:03:53.764Z,37.22
2022-07-29T11:06:28.230Z,37.30
2022-07-29T11:09:37.794Z,37.05
2022-07-29T11:12:39.426Z,36.82
2022-07-29T11:15:13.779Z,36.88
2022-07-29T11:18:03.688Z,36.94
2022-07-29T11:20:35.047Z,36.90
2022-07-29T11:23:42.814Z,37.15
2022-07-29T11:26:23.201Z,36.58
2022-07-29T11:28:51.625Z,36.83
2022-07-29T11:31:36.040Z,37.10
2022-07-29T11:34:22.888Z,37.30
2022-07-29T11:37:15.185Z,37.36
2022-07-29T11:42:35.544Z,37.20
2022-07-29T11:45:41.580Z,37.46
2022-07-29T11:48:29.521Z,37.26
2022-07-29T11:51:11.044Z,37.52
2022-07-29T11:53:41.529Z,38.16
2022-07-29T11:56:10.606Z,38.35
2022-07-29T11:58:45.972Z,38.32
2022-07-29T12:01:15.402Z,38.09
2022-07-29T12:06:32.362Z,37.85
2022-07-29T12:07:03.249Z,38.12
2022-07-29T12:09:01.374Z,38.19
2022-07-29T12:11:30.190Z,38.46
2022-07-29T12:13:58.743Z,38.36
2022-07-29T12:16:38.392Z,38.46
2022-07-29T12:19:07.835Z,38.75
2022-07-29T12:21:56.146Z,38.20
2022-07-29T12:24:26.489Z,37.91
2022-07-29T12:26:57.163Z,37.76
2022-07-29T12:29:33.692Z,37.58
2022-07-29T12:32:15.029Z,37.19
2022-07-29T12:34:49.582Z,37.08
2022-07-29T12:37:18.543Z,37.01
2022-07-29T12:39:46.820Z,37.27
2022-07-29T12:42:18.424Z,37.22
2022-07-29T12:44:51.569Z,37.30
2022-07-29T12:47:20.886Z,37.53
2022-07-29T12:49:50.685Z,37.87
2022-07-29T12:52:26.180Z,38.37
2022-07-29T12:54:54.963Z,38.61
2022-07-29T12:57:23.570Z,38.51
2022-07-29T13:00:11.831Z,38.27
2022-07-29T13:02:41.994Z,37.96
2022-07-29T13:05:12.135Z,37.81
2022-07-29T13:07:55.576Z,38.09
2022-07-29T13:10:26.286Z,38.03
2022-07-29T13:13:10.636Z,38.13
2022-07-29T13:15:45.053Z,37.69
2022-07-29T13:18:29.321Z,38.12
2022-07-29T13:20:58.267Z,37.72
2022-07-29T13:23:27.753Z,37.45
2022-07-29T13:25:56.150Z,38.15
2022-07-29T13:28:26.341Z,37.96
2022-07-29T13:30:54.077Z,38.15
2022-07-29T13:33:23.306Z,37.72
2022-07-29T13:35:51.758Z,37.54
2022-07-29T13:38:20.272Z,37.50
2022-07-29T13:40:48.564Z,37.66
2022-07-29T13:43:17.203Z,37.97
2022-07-29T13:45:45.562Z,38.24
2022-07-29T13:48:13.286Z,38.23
2022-07-29T13:50:41.734Z,38.55
2022-07-29T13:53:10.194Z,38.22
2022-07-29T13:55:46.286Z,37.59
2022-07-29T13:58:15.095Z,37.66
2022-07-29T14:00:42.784Z,37.67
2022-07-29T14:03:11.063Z,38.12
2022-07-29T14:05:38.828Z,37.83
2022-07-29T14:08:06.978Z,38.01
2022-07-29T14:10:35.794Z,38.53
2022-07-29T14:13:07.236Z,38.95
2022-07-29T14:15:54.558Z,38.63
2022-07-29T14:18:23.324Z,38.20
2022-07-29T14:20:52.209Z,38.12
2022-07-29T14:23:20.510Z,38.18
2022-07-29T14:25:49.381Z,38.36
2022-07-29T14:28:17.926Z,38.65
2022-07-29T14:30:46.958Z,38.63
2022-07-29T14:33:14.791Z,38.31
2022-07-29T14:35:42.981Z,37.95
2022-07-29T14:38:12.965Z,38.12
2022-07-29T14:40:41.741Z,38.21
2022-07-29T14:43:09.926Z,38.16
2022-07-29T14:45:39.169Z,38.24
2022-07-29T14:48:07.097Z,38.46
2022-07-29T14:50:35.495Z,38.23
2022-07-29T14:53:15.991Z,38.45
2022-07-29T14:55:53.288Z,38.49
2022-07-29T14:58:24.642Z,38.41
2022-07-29T15:00:57.959Z,38.54
2022-07-29T15:03:36.158Z,38.37
2022-07-29T15:06:13.629Z,38.15
2022-07-29T15:08:47.103Z,38.18
2022-07-29T15:11:15.349Z,38.29
2022-07-29T15:13:44.590Z,37.90
2022-07-29T15:16:12.918Z,37.76
2022-07-29T15:18:41.070Z,37.26
2022-07-29T15:21:10.192Z,37.64
2022-07-29T15:23:39.726Z,37.34
2022-07-29T15:26:08.299Z,37.77
2022-07-29T15:28:36.651Z,37.81
2022-07-29T15:31:08.050Z,37.62
2022-07-29T15:33:39.648Z,37.53
2022-07-29T15:36:25.423Z,36.40
2022-07-29T15:39:09.815Z,36.47
2022-07-29T15:41:40.277Z,36.93
2022-07-29T15:44:16.477Z,37.38
2022-07-29T15:47:06.265Z,37.12
2022-07-29T15:49:47.915Z,37.40
2022-07-29T15:52:25.930Z,36.84
2022-07-29T15:55:01.388Z,36.98
2022-07-29T15:57:31.641Z,37.29
2022-07-29T16:00:04.137Z,36.73
2022-07-29T16:02:40.354Z,36.37
2022-07-29T16:05:14.081Z,36.36
2022-07-29T16:07:43.629Z,36.19
2022-07-29T16:10:26.580Z,36.18
2022-07-29T16:12:57.424Z,35.87
2022-07-29T16:15:29.669Z,36.11
2022-07-29T16:18:01.799Z,36.73
2022-07-29T16:20:40.098Z,36.46
2022-07-29T16:23:12.410Z,36.40
2022-07-29T16:25:59.130Z,36.52
2022-07-29T16:28:34.339Z,36.87
2022-07-29T16:31:11.939Z,37.25
2022-07-29T16:33:55.278Z,37.08
2022-07-29T16:36:31.170Z,37.01
2022-07-29T16:39:02.446Z,36.98
2022-07-29T16:41:38.464Z,36.92
2022-07-29T16:44:09.539Z,36.52
2022-07-29T16:46:40.254Z,35.96
2022-07-29T16:49:09.818Z,36.06
2022-07-29T16:51:43.830Z,35.53
2022-07-29T16:54:13.096Z,35.76
2022-07-29T16:56:43.083Z,35.92
2022-07-29T16:59:15.056Z,36.09
2022-07-29T17:01:45.139Z,35.92
2022-07-29T17:04:19.737Z,35.95
2022-07-29T17:06:53.630Z,36.12
2022-07-29T17:09:24.613Z,35.99
2022-07-29T17:11:55.331Z,36.02
2022-07-29T17:14:36.337Z,35.97
2022-07-29T17:17:13.885Z,36.08
2022-07-29T17:19:45.136Z,35.90
2022-07-29T17:22:20.114Z,35.85
2022-07-29T17:24:57.630Z,35.94
2022-07-29T17:27:33.101Z,35.82
2022-07-29T17:30:07.432Z,35.73
2022-07-29T17:32:40.265Z,35.74
2022-07-29T17:35:32.751Z,35.90
2022-07-29T17:38:13.956Z,35.82
2022-07-29T17:40:44.620Z,35.67
2022-07-29T17:43:13.563Z,35.45
2022-07-29T17:45:49.406Z,35.55
2022-07-29T17:48:20.123Z,35.63
2022-07-29T17:50:48.998Z,35.61
2022-07-29T17:53:21.601Z,35.71
2022-07-29T17:55:52.476Z,35.39
2022-07-29T17:58:20.703Z,35.33
2022-07-29T18:00:51.575Z,35.41
2022-07-29T18:03:23.996Z,35.21
2022-07-29T18:05:55.141Z,34.89
2022-07-29T18:08:26.403Z,34.71
2022-07-29T18:10:57.834Z,34.76
2022-07-29T18:13:28.159Z,34.58
2022-07-29T18:16:03.466Z,34.25
2022-07-29T18:18:31.830Z,34.10
2022-07-29T18:20:59.756Z,33.88
2022-07-29T18:23:32.397Z,33.93
2022-07-29T18:26:04.271Z,33.76
2022-07-29T18:28:34.909Z,33.94
2022-07-29T18:31:03.861Z,33.85
2022-07-29T18:33:33.007Z,33.62
2022-07-29T18:36:10.769Z,33.59
2022-07-29T18:38:41.335Z,33.44
2022-07-29T18:41:09.665Z,33.65
2022-07-29T18:43:40.174Z,33.48
2022-07-29T18:46:08.415Z,33.53
2022-07-29T18:48:38.908Z,33.68
2022-07-29T18:51:14.968Z,33.63
2022-07-29T18:53:45.000Z,33.65
2022-07-29T18:56:15.304Z,33.06
2022-07-29T18:58:43.213Z,33.02
2022-07-29T19:01:16.715Z,32.74
2022-07-29T19:03:44.748Z,32.75
2022-07-29T19:06:13.312Z,32.55
2022-07-29T19:08:42.027Z,32.43
2022-07-29T19:11:15.702Z,32.22
2022-07-29T19:13:44.938Z,31.89
2022-07-29T19:16:14.290Z,31.78
2022-07-29T19:18:43.355Z,31.72
2022-07-29T19:21:11.911Z,31.72
2022-07-29T19:24:01.574Z,31.93
2022-07-29T19:26:34.377Z,32.14
2022-07-29T19:29:04.752Z,32.18
2022-07-29T19:31:34.445Z,32.04
2022-07-29T19:34:06.151Z,31.83
2022-07-29T19:36:38.638Z,31.13
2022-07-29T19:39:07.872Z,31.45
2022-07-29T19:41:40.782Z,31.24
2022-07-29T19:44:09.388Z,31.33
2022-07-29T19:46:38.355Z,31.25
2022-07-29T19:49:06.941Z,31.09
2022-07-29T19:51:35.072Z,31.30
2022-07-29T19:54:04.265Z,31.30
2022-07-29T19:56:33.528Z,31.46
2022-07-29T19:59:05.268Z,31.35
2022-07-29T20:01:35.856Z,31.20
2022-07-29T20:04:06.343Z,31.09
2022-07-29T20:06:37.283Z,31.41
2022-07-29T20:09:07.585Z,31.35
2022-07-29T20:11:45.373Z,31.41
2022-07-29T20:14:13.747Z,31.26
2022-07-29T20:16:42.901Z,31.15
2022-07-29T20:19:16.377Z,31.31
2022-07-29T20:21:49.484Z,31.21
2022-07-29T20:24:19.862Z,31.27
2022-07-29T20:26:50.043Z,30.96
2022-07-29T20:29:19.233Z,30.91
2022-07-29T20:31:52.299Z,30.73
2022-07-29T20:34:25.048Z,30.60
2022-07-29T20:36:54.883Z,30.65
2022-07-29T20:39:26.318Z,30.48
2022-07-29T20:41:55.012Z,30.57
2022-07-29T20:44:24.417Z,30.54
2022-07-29T20:46:52.887Z,30.47
2022-07-29T20:49:24.033Z,30.64
2022-07-29T20:51:56.310Z,30.55
2022-07-29T20:54:24.477Z,30.84
2022-07-29T20:56:53.333Z,30.90
2022-07-29T20:59:21.837Z,30.70
2022-07-29T21:01:55.835Z,30.45
2022-07-29T21:04:26.034Z,30.94
2022-07-29T21:06:59.260Z,30.84
2022-07-29T21:09:45.662Z,30.67
2022-07-29T21:12:14.447Z,30.95
2022-07-29T21:14:51.910Z,31.00
2022-07-29T21:17:22.611Z,30.85
2022-07-29T21:19:55.523Z,31.14
2022-07-29T21:22:23.470Z,30.96
2022-07-29T21:24:51.956Z,30.83
2022-07-29T21:27:40.910Z,30.58
2022-07-29T21:30:10.518Z,30.71
2022-07-29T21:32:40.718Z,30.80
2022-07-29T21:35:18.273Z,30.74
2022-07-29T21:37:58.339Z,30.51
2022-07-29T21:40:26.657Z,30.47
2022-07-29T21:42:54.802Z,30.11
2022-07-29T21:45:23.991Z,30.10
2022-07-29T21:47:51.849Z,29.52
2022-07-29T21:50:20.132Z,29.97
2022-07-29T21:52:50.128Z,29.67
2022-07-29T21:55:19.323Z,29.63
2022-07-29T21:57:51.844Z,29.74
2022-07-29T22:00:22.083Z,29.86
2022-07-29T22:02:53.791Z,29.57
2022-07-29T22:05:22.098Z,29.31
2022-07-29T22:07:55.215Z,29.58
2022-07-29T22:10:32.487Z,29.36
2022-07-29T22:13:03.728Z,29.01
2022-07-29T22:15:33.139Z,29.25
2022-07-29T22:18:05.610Z,28.85
2022-07-29T22:20:34.860Z,28.83
2022-07-29T22:23:05.465Z,28.55
2022-07-29T22:25:37.049Z,28.56
2022-07-29T22:28:06.820Z,28.57
2022-07-29T22:30:38.056Z,28.64
2022-07-29T22:33:09.454Z,28.39
2022-07-29T22:35:48.745Z,28.54
2022-07-29T22:38:20.943Z,28.29
2022-07-29T22:40:52.171Z,28.47
2022-07-29T22:43:23.459Z,28.46
2022-07-29T22:45:54.112Z,28.29
2022-07-29T22:48:23.937Z,28.44
2022-07-29T22:50:53.245Z,28.22
2022-07-29T22:53:23.352Z,28.18
2022-07-29T22:55:56.787Z,27.91
2022-07-29T22:58:26.463Z,27.86
2022-07-29T23:00:57.009Z,28.09
2022-07-29T23:03:27.885Z,28.05
2022-07-29T23:06:02.596Z,27.76
2022-07-29T23:08:32.792Z,28.18
2022-07-29T23:11:04.942Z,27.71
2022-07-29T23:13:34.592Z,27.94
2022-07-29T23:16:05.511Z,27.76
2022-07-29T23:18:38.489Z,27.67
2022-07-29T23:21:12.686Z,27.65
2022-07-29T23:23:41.817Z,27.42
2022-07-29T23:26:17.218Z,27.38
2022-07-29T23:28:47.683Z,27.41
2022-07-29T23:31:21.343Z,27.26
2022-07-29T23:33:55.920Z,27.40
2022-07-29T23:36:31.871Z,27.11
2022-07-29T23:39:04.289Z,27.04
2022-07-29T23:41:35.760Z,27.22
2022-07-29T23:44:06.581Z,27.25
2022-07-29T23:46:36.194Z,26.73
2022-07-29T23:49:08.496Z,27.03
2022-07-29T23:51:38.564Z,27.19
2022-07-29T23:54:08.435Z,27.10
2022-07-29T23:56:40.924Z,27.13
2022-07-29T23:59:10.820Z,26.77
